CheckWX is a tool to help pilots better visualize weather data.  It is not intended as a substitute for an official pre-flight weather briefing.

01:33:23 UTC

DAOV TAF
Ghriss Airport
Algeria
TAF DAOV 182300Z 1900/1909 VRB02KT 9999 FEW026 PROB40 TEMPO 1900/1906 1500 BR SCT010

Jun-19@
00:00 UTC

Jun-19 @ 00:00 UTC

Jun-19@
09:00 UTC

Jun-19 @ 09:00 UTC

TAF DAOV 182300Z 1900/1909 VRB02KT 9999 FEW026
Wind
  • Variable at 2 KTS
Cloud Levels
  • Few at 2,600' AGL

Jun-19@
00:00 UTC

Jun-19 @ 00:00 UTC

Jun-19@
06:00 UTC

Jun-19 @ 06:00 UTC

PROB40 TEMPO 1900/1906 1500 BR SCT010

Temporary - 40% Likelihood

Temporary - 40% Likelihood during this time.

Conditions
Mist
Cloud Levels
  • Scattered at 1,000' AGL